• Join FlightAware (Why Join?)
  • Login
  • US Flag 
04:22PM EDT


 

Airport Tracker/Info


-or-


 

Live Flight TrackerFlight Track Log ✈ SWA3853 ✈ 01-May-2013 ✈ KBNA - KMCI

Flight Track Log - Related Links

Times and Time Zones

All times are in EDT time to prevent confusion due to time zone crossing. See the SWA3853 flight status page for this flight to view local times or setup timezone preferences in your user account.

Time Position Orientation Groundspeed Altitude Reporting Facility
EDT Latitude Longitude Course Direction KTS MPH feet Rate Location/Type
12:48PM 36.0833 -86.7500 253° West 230 265 3,400  Level Nashville TRACON
12:49PM 36.1167 -86.8167 302° West 297 342 6,400 3,540 Climbing Nashville TRACON
12:50PM 36.1500 -86.9167 292° West 313 360 10,200 3,720 Climbing Nashville TRACON
12:50PM 36.1617 -86.9481 295° West 333 383 11,300 3,000 Climbing Memphis Center
12:51PM 36.2044 -87.0594 295° West 356 410 14,200 3,000 Climbing Memphis Center
12:52PM 36.2511 -87.1761 296° West 374 430 17,400 3,000 Climbing Memphis Center
12:53PM 36.2915 -87.4145 277° West  Level FlightAware Approximate
12:53PM 36.2836 -87.3086 287° West 390 449 20,200  Level Memphis Center
12:54PM 36.3033 -87.4314 281° West 405 466 22,700 2,460 Climbing Memphis Center
12:55PM 36.3442 -87.5717 290° West 417 480 25,200 2,100 Climbing Memphis Center
12:56PM 36.4031 -87.6986 300° West 424 488 27,000 900 Climbing Memphis Center
12:57PM 36.4144 -87.8453 276° West 419 482 27,000  Level Memphis Center
12:58PM 36.4339 -87.9839 280° West 425 489 27,000  Level Memphis Center
12:59PM 36.4781 -88.1219 292° West 425 489 27,000 780 Level Memphis Center
01:00PM 36.5244 -88.2575 293° West 431 496 28,600 1,500 Climbing Memphis Center
01:01PM 36.5706 -88.4011 292° West 431 496 30,100 1,560 Climbing Memphis Center
01:02PM 36.6186 -88.5525 292° West 452 520 31,800 2,100 Climbing Memphis Center
01:03PM 36.6622 -88.6964 291° West 452 520 34,300 2,160 Climbing Memphis Center
01:04PM 36.7100 -88.8378 293° West 452 520 36,200 1,800 Climbing Memphis Center
01:05PM 36.7533 -88.9792 291° West 447 514 38,000 1,320 Climbing Memphis Center
01:06PM 36.7944 -89.1183 290° West 442 509 38,900 840 Climbing Memphis Center
01:07PM 36.8375 -89.2603 291° West 442 509 39,700 540 Climbing Memphis Center
01:08PM 36.8825 -89.4050 291° West 442 509 40,000 120 Climbing Memphis Center
01:09PM 36.9250 -89.5497 290° West 447 514 40,000  Level Memphis Center
01:10PM 36.9675 -89.6897 291° West 447 514 40,000  Level Memphis Center
01:11PM 37.0100 -89.8347 290° West 447 514 40,000  Level Memphis Center
01:12PM 37.0542 -89.9747 292° West 441 507 40,000  Level Memphis Center
01:13PM 37.0942 -90.1150 290° West 441 507 40,000  Level Memphis Center
01:16PM 37.1942 -90.4422 291° West 431 496 40,000  Level Kansas City Center
01:17PM 37.2361 -90.5831 291° West 431 496 40,000  Level Kansas City Center
01:18PM 37.2772 -90.7244 290° West 431 496 40,000  Level Kansas City Center
01:19PM 37.3242 -90.8894 290° West 432 497 40,000  Level Kansas City Center
01:20PM 37.3667 -91.0319 291° West 434 499 40,000  Level Kansas City Center
01:21PM 37.4075 -91.1750 290° West 434 499 40,000  Level Kansas City Center
01:22PM 37.4486 -91.3192 290° West 436 502 40,000  Level Kansas City Center
01:23PM 37.4900 -91.4636 290° West 437 503 40,000  Level Kansas City Center
01:24PM 37.5306 -91.6092 289° West 437 503 40,000  Level Kansas City Center
01:25PM 37.5914 -91.7403 300° West 434 499 40,000  Level Kansas City Center
01:26PM 37.6678 -91.8978 302° West 438 504 40,000  Level Kansas City Center
01:27PM 37.7311 -92.0292 301° West 437 503 40,000  Level Kansas City Center
01:28PM 37.7958 -92.1650 301° West 439 505 40,000  Level Kansas City Center
01:29PM 37.8589 -92.2994 301° West 442 509 40,000  Level Kansas City Center
01:30PM 37.9231 -92.4342 301° West 445 512 40,000 -240 Level Kansas City Center
01:31PM 37.9856 -92.5667 301° West 443 510 39,600 -780 Descending Kansas City Center
01:32PM 38.0489 -92.7014 301° West 444 511 38,500 -1,620 Descending Kansas City Center
01:33PM 38.1175 -92.8472 301° West 445 512 36,300 -2,940 Descending Kansas City Center
01:34PM 38.1806 -92.9853 300° West 449 517 32,400 -3,120 Descending Kansas City Center
01:35PM 38.2456 -93.1231 301° West 451 519 29,800 -2,760 Descending Kansas City Center
01:36PM 38.3206 -93.2825 301° West 439 505 26,800 -2,580 Descending Kansas City Center
01:37PM 38.3794 -93.4117 300° West 424 488 24,500 -2,280 Descending Kansas City Center
01:38PM 38.4353 -93.5358 300° West 408 470 22,200 -2,220 Descending Kansas City Center
01:39PM 38.4892 -93.6569 300° West 396 456 20,000 -2,220 Descending Kansas City Center
01:40PM 38.5506 -93.7864 301° West 383 441 17,700 -2,160 Descending Kansas City Center
01:41PM 38.5992 -93.8950 300° West 371 427 15,600 -2,040 Descending Kansas City Center
01:42PM 38.6467 -93.9983 301° West 356 410 13,500 -2,040 Descending Kansas City Center
01:44PM 38.7089 -94.1119 305° West 349 402 11,400 -1,680 Descending Kansas City Center
01:45PM 38.7803 -94.1878 320° Northwest 347 399 10,100 -1,140 Descending Kansas City Center
01:46PM 38.8472 -94.2797 313° West 313 360 9,100 -1,020 Descending Kansas City Center
01:47PM 38.8950 -94.3553 309° West 287 330 8,000 -660 Descending Kansas City Center
01:48PM 38.9544 -94.4397 312° West 286 329 7,800 -540 Descending Kansas City Center
01:49PM 39.0025 -94.5142 310° West 282 325 7,000 -960 Descending Kansas City Center
01:50PM 39.0481 -94.5983 305° West 260 299 5,900 -1,020 Descending Kansas City Center
01:51PM 39.0886 -94.6722 305° West 260 299 5,000 -780 Descending Kansas City Center
01:52PM 39.1478 -94.7258 325° Northwest 268 308 4,300 -540 Descending Kansas City Center
01:53PM 39.2036 -94.7342 353° North 194 223 3,900 -1,260 Descending Kansas City Center
01:54PM 39.2494 -94.7194 14° North 154 177 1,800 -1,440 Descending Kansas City Center
01:55PM 39.2844 -94.7097 12° North 136 157 1,000 -780 Descending Kansas City Center